Time;durP1;ratioP1;P1;durP2;ratioP2;P2;SDS_P1;SDS_P2;PMS_P1;PMS_P2;Temp;Humidity;BMP_temperature;BMP_pressure;BME280_temperature;BME280_humidity;BME280_pressure;Samples;Min_cycle;Max_cycle;Signal;HPM_P1;HPM_P2
2021/01/23 00:00:10;;;;;;;1.83;1.50;;;10.30;81.50;;;;;;5082030;28;20553;-43
2021/01/23 00:02:35;;;;;;;1.77;1.50;;;10.30;81.60;;;;;;5082488;28;20059;-44
2021/01/23 00:05:01;;;;;;;2.42;1.70;;;10.30;81.50;;;;;;5081052;28;20040;-43
2021/01/23 00:07:27;;;;;;;2.17;1.75;;;10.30;81.60;;;;;;5081370;28;20143;-42
2021/01/23 00:09:52;;;;;;;2.60;1.90;;;10.30;81.50;;;;;;5081992;28;20484;-43
2021/01/23 00:12:18;;;;;;;1.90;1.70;;;10.30;81.60;;;;;;5080117;28;20044;-42
2021/01/23 00:14:44;;;;;;;3.28;1.75;;;10.30;81.60;;;;;;5082374;28;20391;-43
2021/01/23 00:17:09;;;;;;;2.83;1.63;;;10.30;81.60;;;;;;5081111;28;20040;-43
2021/01/23 00:19:38;;;;;;;1.88;1.67;;;10.30;81.60;;;;;;5081582;28;20037;-43
2021/01/23 00:22:03;;;;;;;1.92;1.70;;;10.30;81.60;;;;;;5081122;28;20060;-43
2021/01/23 00:24:29;;;;;;;2.35;1.70;;;10.30;81.50;;;;;;5081864;28;20072;-41
2021/01/23 00:26:55;;;;;;;1.88;1.48;;;10.30;81.60;;;;;;5080086;28;20056;-44
2021/01/23 00:29:20;;;;;;;3.08;2.22;;;10.40;81.60;;;;;;5082421;28;20400;-44
2021/01/23 00:31:47;;;;;;;2.85;1.63;;;10.30;81.60;;;;;;5082185;28;20505;-43
2021/01/23 00:34:13;;;;;;;2.33;1.80;;;10.30;81.50;;;;;;5079978;28;20044;-40
2021/01/23 00:36:39;;;;;;;2.90;1.90;;;10.30;81.60;;;;;;5065893;28;20064;-43
2021/01/23 00:39:06;;;;;;;2.70;1.95;;;10.30;81.60;;;;;;5086541;28;20102;-41
2021/01/23 00:41:32;;;;;;;2.15;1.75;;;10.30;81.50;;;;;;5084058;28;20143;-43
2021/01/23 00:43:57;;;;;;;2.97;2.00;;;10.30;81.60;;;;;;5086631;28;20052;-42
2021/01/23 00:46:24;;;;;;;2.40;1.83;;;10.30;81.50;;;;;;5086483;28;20044;-42
2021/01/23 00:48:49;;;;;;;2.30;1.90;;;10.30;81.60;;;;;;5082258;28;20044;-44
2021/01/23 00:51:16;;;;;;;4.82;2.70;;;10.30;81.50;;;;;;5084938;28;20044;-43
2021/01/23 00:53:44;;;;;;;3.17;2.30;;;10.30;81.50;;;;;;5085939;28;20044;-43
2021/01/23 00:56:10;;;;;;;2.08;1.85;;;10.30;81.50;;;;;;5085256;28;20067;-43
2021/01/23 00:58:35;;;;;;;2.40;2.17;;;10.30;81.50;;;;;;5083962;28;20036;-43
2021/01/23 01:01:01;;;;;;;2.40;2.00;;;10.30;81.50;;;;;;5086486;28;20475;-44
2021/01/23 01:03:27;;;;;;;4.30;2.40;;;10.30;81.50;;;;;;5083799;28;20426;-45
2021/01/23 01:05:53;;;;;;;2.75;1.90;;;10.30;81.50;;;;;;5085708;28;20040;-41
2021/01/23 01:08:18;;;;;;;3.03;2.20;;;10.30;81.60;;;;;;5083870;28;20504;-42
2021/01/23 01:10:47;;;;;;;2.85;2.20;;;10.30;81.60;;;;;;5084838;28;20055;-44
2021/01/23 01:13:13;;;;;;;3.67;2.00;;;10.30;81.50;;;;;;5086093;28;20051;-44
2021/01/23 01:15:39;;;;;;;2.70;2.17;;;10.30;81.60;;;;;;5083747;28;20381;-45
2021/01/23 01:18:06;;;;;;;3.25;2.20;;;10.30;81.60;;;;;;5084850;28;20066;-47
2021/01/23 01:20:32;;;;;;;4.07;2.78;;;10.30;81.60;;;;;;5084731;28;20057;-46
2021/01/23 01:22:57;;;;;;;2.95;1.77;;;10.30;81.50;;;;;;5082998;28;20079;-42
2021/01/23 01:25:23;;;;;;;2.92;2.55;;;10.30;82.20;;;;;;5085115;28;20082;-46
2021/01/23 01:27:49;;;;;;;2.75;2.33;;;10.30;81.60;;;;;;5083899;28;20052;-43
2021/01/23 01:30:15;;;;;;;2.80;2.40;;;10.30;81.50;;;;;;5083937;28;20044;-37
2021/01/23 01:32:41;;;;;;;3.05;2.20;;;10.30;81.60;;;;;;5083992;28;20049;-43
2021/01/23 01:35:08;;;;;;;2.60;2.40;;;10.30;81.60;;;;;;5084301;28;20120;-42
2021/01/23 01:37:33;;;;;;;3.08;2.05;;;10.30;81.50;;;;;;5082732;28;20048;-45
2021/01/23 01:39:59;;;;;;;2.45;2.00;;;10.30;81.60;;;;;;5084780;28;20048;-42
2021/01/23 01:42:25;;;;;;;3.53;2.58;;;10.30;81.50;;;;;;5083747;28;20043;-42
2021/01/23 01:44:50;;;;;;;3.22;2.63;;;10.30;81.50;;;;;;5084617;28;20036;-38
2021/01/23 01:47:19;;;;;;;3.55;2.85;;;10.30;81.50;;;;;;5081672;28;20499;-45
2021/01/23 01:49:45;;;;;;;3.05;2.47;;;10.30;81.60;;;;;;5083302;28;20047;-42
2021/01/23 01:52:13;;;;;;;3.42;2.53;;;10.30;81.60;;;;;;5084244;28;20054;-42
2021/01/23 01:54:40;;;;;;;4.75;2.78;;;10.30;81.60;;;;;;5082278;28;20053;-41
2021/01/23 01:57:06;;;;;;;3.33;2.42;;;10.20;81.50;;;;;;5083767;28;20048;-43
2021/01/23 01:59:32;;;;;;;3.50;2.58;;;10.20;81.50;;;;;;5083983;28;20443;-45
2021/01/23 02:02:10;;;;;;;4.50;2.53;;;10.20;81.50;;;;;;5086456;28;20123;-44
2021/01/23 02:04:57;;;;;;;3.42;2.50;;;10.20;81.50;;;;;;5084441;28;20048;-41
2021/01/23 02:07:53;;;;;;;3.60;2.80;;;10.20;81.50;;;;;;5081959;28;20093;-41
2021/01/23 02:10:45;;;;;;;3.45;2.35;;;10.20;81.50;;;;;;5084423;28;20139;-44
2021/01/23 02:13:30;;;;;;;3.55;3.25;;;10.20;81.50;;;;;;5083858;28;20052;-42
2021/01/23 02:16:09;;;;;;;3.30;2.38;;;10.20;81.50;;;;;;5083965;28;20045;-44
2021/01/23 02:19:03;;;;;;;3.72;3.10;;;10.20;81.50;;;;;;5084499;28;20044;-43
2021/01/23 02:21:52;;;;;;;4.55;3.13;;;10.20;81.50;;;;;;5083314;28;20041;-41
2021/01/23 02:24:24;;;;;;;4.25;2.60;;;10.20;81.50;;;;;;5083649;28;20127;-43
2021/01/23 02:26:58;;;;;;;3.15;2.78;;;10.20;81.50;;;;;;5083678;28;20054;-43
2021/01/23 02:29:55;;;;;;;3.60;2.88;;;10.20;81.50;;;;;;5083059;28;20047;-43
2021/01/23 02:32:22;;;;;;;3.85;2.63;;;10.20;81.50;;;;;;5082115;28;20072;-43
2021/01/23 02:34:49;;;;;;;4.32;3.08;;;10.20;81.50;;;;;;5083143;28;20041;-42
2021/01/23 02:37:17;;;;;;;5.03;3.08;;;10.20;81.50;;;;;;5083571;28;20048;-43
2021/01/23 02:39:43;;;;;;;4.22;3.42;;;10.20;81.60;;;;;;5082634;28;20052;-43
2021/01/23 02:42:09;;;;;;;3.58;3.00;;;10.20;81.50;;;;;;5084587;28;20056;-39
2021/01/23 02:44:34;;;;;;;4.70;3.40;;;10.20;81.50;;;;;;5082574;28;20044;-42
2021/01/23 02:47:00;;;;;;;3.47;2.85;;;10.20;81.50;;;;;;5082600;28;20479;-43
2021/01/23 02:49:26;;;;;;;4.07;3.30;;;10.20;81.60;;;;;;5083295;28;20076;-43
2021/01/23 02:51:58;;;;;;;4.28;3.10;;;10.20;81.60;;;;;;5081482;28;20148;-42
2021/01/23 02:54:45;;;;;;;4.45;3.40;;;10.20;81.60;;;;;;5082602;28;20048;-45
2021/01/23 02:57:12;;;;;;;4.10;3.03;;;10.20;81.60;;;;;;5082658;28;20043;-42
2021/01/23 02:59:40;;;;;;;4.78;3.35;;;10.20;81.60;;;;;;5081689;28;20106;-42
2021/01/23 03:02:11;;;;;;;6.15;3.80;;;10.20;81.60;;;;;;5082143;28;20043;-44
2021/01/23 03:04:40;;;;;;;3.72;3.08;;;10.20;81.60;;;;;;5083379;28;20044;-43
2021/01/23 03:07:06;;;;;;;5.03;3.47;;;10.20;81.60;;;;;;5082592;28;20055;-43
2021/01/23 03:09:32;;;;;;;4.22;3.55;;;10.20;81.60;;;;;;5083579;28;20045;-44
2021/01/23 03:11:59;;;;;;;5.13;3.78;;;10.20;81.60;;;;;;5081919;28;20054;-41
2021/01/23 03:14:24;;;;;;;4.80;3.35;;;10.20;81.60;;;;;;5082272;28;20040;-41
2021/01/23 03:16:56;;;;;;;5.13;3.58;;;10.20;81.60;;;;;;5082687;28;20218;-41
2021/01/23 03:19:23;;;;;;;4.75;3.72;;;10.20;81.60;;;;;;5081933;28;20109;-41
2021/01/23 03:21:50;;;;;;;5.68;3.40;;;10.20;81.60;;;;;;5082531;28;20045;-41
2021/01/23 03:24:20;;;;;;;4.68;3.08;;;10.20;81.60;;;;;;5082438;28;20514;-42
2021/01/23 03:26:47;;;;;;;4.15;3.40;;;10.20;81.60;;;;;;5082106;28;20052;-42
2021/01/23 03:29:14;;;;;;;3.83;3.40;;;10.20;81.60;;;;;;5082697;28;20058;-41
2021/01/23 03:31:39;;;;;;;5.75;3.65;;;10.20;81.60;;;;;;5080495;28;20068;-39
2021/01/23 03:34:05;;;;;;;4.35;3.40;;;10.20;81.60;;;;;;5081942;28;20502;-42
2021/01/23 03:36:31;;;;;;;3.90;3.35;;;10.20;81.60;;;;;;5082325;28;20404;-42
2021/01/23 03:38:58;;;;;;;4.55;3.70;;;10.20;81.60;;;;;;5080157;28;20041;-41
2021/01/23 03:41:23;;;;;;;4.93;3.75;;;10.20;81.60;;;;;;5082883;28;20740;-42
2021/01/23 03:43:49;;;;;;;4.28;3.35;;;10.20;82.20;;;;;;5080633;28;20154;-40
2021/01/23 03:46:15;;;;;;;4.22;3.45;;;10.20;81.60;;;;;;5082154;28;20068;-42
2021/01/23 03:48:41;;;;;;;5.43;3.65;;;10.20;81.60;;;;;;5082590;28;20040;-41
2021/01/23 03:51:06;;;;;;;5.20;3.67;;;10.20;81.60;;;;;;5081416;28;20042;-42
2021/01/23 03:53:32;;;;;;;4.93;3.83;;;10.20;81.60;;;;;;5082061;28;20048;-41
2021/01/23 03:55:58;;;;;;;7.00;4.35;;;10.20;81.60;;;;;;5079914;28;20052;-40
2021/01/23 03:58:25;;;;;;;4.75;3.45;;;10.20;81.60;;;;;;5081870;28;20044;-42
2021/01/23 04:00:50;;;;;;;6.30;3.67;;;10.10;81.60;;;;;;5080974;28;20063;-43
2021/01/23 04:03:16;;;;;;;4.90;3.78;;;10.10;81.50;;;;;;5082101;28;20058;-43
2021/01/23 04:05:42;;;;;;;5.00;3.72;;;10.10;81.60;;;;;;5081075;28;20444;-41
2021/01/23 04:08:08;;;;;;;4.53;3.65;;;10.20;81.60;;;;;;5082466;28;20052;-41
2021/01/23 04:10:34;;;;;;;4.97;4.03;;;10.10;81.60;;;;;;5083743;28;20040;-42
2021/01/23 04:13:00;;;;;;;3.80;3.40;;;10.20;81.60;;;;;;5084291;28;20060;-39
2021/01/23 04:15:26;;;;;;;5.78;4.15;;;10.20;81.60;;;;;;5085674;28;20050;-41
2021/01/23 04:17:52;;;;;;;3.83;3.40;;;10.10;81.60;;;;;;5084078;28;20126;-41
2021/01/23 04:20:18;;;;;;;6.13;4.25;;;10.10;81.60;;;;;;5086011;28;20496;-42
2021/01/23 04:22:44;;;;;;;5.05;4.22;;;10.10;81.60;;;;;;5085759;28;20043;-44
2021/01/23 04:25:11;;;;;;;3.47;3.17;;;10.10;81.60;;;;;;5084547;28;20412;-44
2021/01/23 04:27:36;;;;;;;5.20;3.60;;;10.10;81.60;;;;;;5086396;28;20044;-42
2021/01/23 04:30:08;;;;;;;5.93;4.10;;;10.20;81.70;;;;;;5085044;28;20043;-41
2021/01/23 04:32:35;;;;;;;4.47;4.00;;;10.10;81.60;;;;;;5085713;28;20056;-40
2021/01/23 04:35:04;;;;;;;4.68;4.00;;;10.10;81.60;;;;;;5084622;28;20052;-42
2021/01/23 04:37:30;;;;;;;4.38;3.70;;;10.10;81.60;;;;;;5084645;28;20043;-44
2021/01/23 04:39:56;;;;;;;5.20;3.63;;;10.10;81.60;;;;;;5085509;28;20040;-43
2021/01/23 04:42:21;;;;;;;5.22;3.83;;;10.10;81.50;;;;;;5086536;28;20060;-41
2021/01/23 04:44:47;;;;;;;5.38;3.70;;;10.10;81.50;;;;;;5085422;28;20075;-41
2021/01/23 04:47:14;;;;;;;6.20;4.03;;;10.10;81.60;;;;;;5084726;28;20072;-45
2021/01/23 04:49:39;;;;;;;5.10;4.15;;;10.10;81.60;;;;;;5084504;28;20051;-41
2021/01/23 04:52:06;;;;;;;4.47;3.92;;;10.10;81.60;;;;;;5066652;28;20079;-44
2021/01/23 04:54:32;;;;;;;4.40;3.92;;;10.10;81.60;;;;;;5083916;28;20421;-43
2021/01/23 04:56:58;;;;;;;4.55;4.13;;;10.10;81.60;;;;;;5083644;28;20044;-41
2021/01/23 04:59:25;;;;;;;5.38;4.10;;;10.10;81.60;;;;;;5086086;28;20051;-42
2021/01/23 05:02:22;;;;;;;6.40;4.18;;;10.10;81.60;;;;;;5084116;28;20040;-41
2021/01/23 05:04:57;;;;;;;4.82;4.30;;;10.10;81.60;;;;;;5084701;28;20119;-42
2021/01/23 05:07:33;;;;;;;5.50;4.07;;;10.10;81.60;;;;;;5084256;28;20182;-41
2021/01/23 05:10:17;;;;;;;4.95;3.85;;;10.10;81.60;;;;;;5084612;28;20416;-42
2021/01/23 05:12:44;;;;;;;4.78;3.97;;;10.10;81.60;;;;;;5083843;28;20357;-41
2021/01/23 05:15:13;;;;;;;4.47;3.45;;;10.10;81.60;;;;;;5085202;28;20047;-43
2021/01/23 05:17:45;;;;;;;5.78;4.20;;;10.10;82.30;;;;;;5083554;28;20044;-41
2021/01/23 05:20:28;;;;;;;4.35;3.45;;;10.10;81.60;;;;;;5083179;28;20052;-41
2021/01/23 05:22:54;;;;;;;6.82;4.50;;;10.10;81.60;;;;;;5085182;28;20051;-42
2021/01/23 05:25:20;;;;;;;4.63;3.88;;;10.10;81.60;;;;;;5082364;28;20045;-41
2021/01/23 05:27:46;;;;;;;5.82;4.07;;;10.10;81.60;;;;;;5083992;28;20044;-44
2021/01/23 05:30:13;;;;;;;4.90;4.43;;;10.10;81.60;;;;;;5084686;28;20523;-40
2021/01/23 05:32:39;;;;;;;5.05;3.97;;;10.10;81.70;;;;;;5083990;28;20067;-41
2021/01/23 05:35:16;;;;;;;5.55;3.72;;;10.10;81.60;;;;;;5084461;28;20121;-40
2021/01/23 05:37:43;;;;;;;4.88;3.95;;;10.10;81.60;;;;;;5084181;28;20039;-42
2021/01/23 05:40:08;;;;;;;5.07;4.28;;;10.10;81.60;;;;;;5082568;28;20071;-42
2021/01/23 05:42:42;;;;;;;5.05;4.20;;;10.00;81.60;;;;;;5083841;28;20072;-40
2021/01/23 05:45:13;;;;;;;5.55;4.18;;;10.10;81.60;;;;;;5083599;28;20176;-45
2021/01/23 05:47:39;;;;;;;4.97;3.97;;;10.10;81.60;;;;;;5083689;28;20131;-41
2021/01/23 05:50:07;;;;;;;5.25;4.00;;;10.10;81.60;;;;;;5083865;28;20398;-43
2021/01/23 05:52:33;;;;;;;5.63;4.28;;;10.10;81.70;;;;;;5084785;28;20051;-42
2021/01/23 05:55:01;;;;;;;4.55;3.90;;;10.00;81.60;;;;;;5083633;28;20040;-42
2021/01/23 05:57:28;;;;;;;5.00;3.88;;;10.10;81.70;;;;;;5083544;28;20246;-42
2021/01/23 05:59:54;;;;;;;4.75;3.88;;;10.00;81.60;;;;;;5084666;28;20045;-41
2021/01/23 06:02:22;;;;;;;4.80;4.35;;;10.00;81.60;;;;;;5082636;28;20144;-42
2021/01/23 06:04:52;;;;;;;4.85;4.30;;;10.10;81.60;;;;;;5084144;28;20083;-42
2021/01/23 06:07:41;;;;;;;4.88;3.90;;;10.10;81.60;;;;;;5082417;28;20043;-41
2021/01/23 06:10:21;;;;;;;5.70;4.40;;;10.10;81.60;;;;;;5082610;28;20145;-39
2021/01/23 06:12:48;;;;;;;5.80;4.35;;;10.10;81.60;;;;;;5082933;28;20072;-40
2021/01/23 06:15:36;;;;;;;4.18;3.75;;;10.00;81.60;;;;;;5082179;28;20048;-40
2021/01/23 06:18:28;;;;;;;5.35;3.95;;;10.00;81.60;;;;;;5003481;28;20615;-41
2021/01/23 06:21:02;;;;;;;5.82;4.50;;;10.00;81.60;;;;;;5002748;28;20406;-42
2021/01/23 06:23:47;;;;;;;4.38;3.72;;;10.10;81.60;;;;;;5003500;28;20050;-42
2021/01/23 06:26:13;;;;;;;4.55;3.83;;;10.00;81.60;;;;;;5005513;28;20042;-41
2021/01/23 06:28:38;;;;;;;4.95;4.38;;;10.00;81.60;;;;;;5004703;28;20054;-41
2021/01/23 06:31:22;;;;;;;5.10;4.15;;;10.00;81.60;;;;;;5002942;28;20406;-42
2021/01/23 06:33:48;;;;;;;4.65;3.90;;;10.00;81.60;;;;;;5002383;28;20537;-41
2021/01/23 06:36:21;;;;;;;5.50;4.50;;;10.00;81.60;;;;;;5004962;28;20049;-43
2021/01/23 06:39:09;;;;;;;4.78;4.05;;;10.00;81.60;;;;;;5007609;28;20046;-42
2021/01/23 06:41:36;;;;;;;5.40;4.25;;;10.00;81.60;;;;;;5002426;28;20077;-40
2021/01/23 06:44:19;;;;;;;5.55;4.55;;;10.00;81.60;;;;;;4999866;28;20494;-45
2021/01/23 06:46:50;;;;;;;5.38;4.57;;;10.00;81.60;;;;;;5001482;28;20045;-44
2021/01/23 06:49:16;;;;;;;4.28;3.85;;;10.00;81.60;;;;;;5002720;28;20108;-43
2021/01/23 06:51:42;;;;;;;4.47;3.85;;;10.00;81.60;;;;;;5001735;28;20469;-43
2021/01/23 06:54:16;;;;;;;4.85;4.00;;;10.00;81.60;;;;;;5014847;28;20049;-42
2021/01/23 06:56:42;;;;;;;5.47;3.85;;;10.00;81.60;;;;;;5083538;28;20074;-45
2021/01/23 06:59:22;;;;;;;4.55;4.05;;;10.00;81.60;;;;;;5080985;28;20519;-39
2021/01/23 07:02:01;;;;;;;4.63;3.97;;;10.00;81.60;;;;;;5081543;28;20049;-42
2021/01/23 07:04:30;;;;;;;5.50;4.28;;;10.00;81.60;;;;;;5081890;28;20476;-43
2021/01/23 07:06:57;;;;;;;5.38;4.10;;;10.00;81.60;;;;;;5082328;28;20118;-45
2021/01/23 07:09:53;;;;;;;5.63;5.00;;;10.00;81.60;;;;;;5083377;28;20100;-43
2021/01/23 07:12:41;;;;;;;4.90;4.38;;;10.00;81.60;;;;;;5082715;28;20051;-44
2021/01/23 07:15:11;;;;;;;4.50;4.10;;;10.00;81.60;;;;;;5081281;28;20064;-42
2021/01/23 07:17:46;;;;;;;5.60;4.60;;;10.00;81.60;;;;;;5081743;28;20473;-46
2021/01/23 07:20:13;;;;;;;5.13;4.28;;;10.00;81.60;;;;;;5082292;28;20144;-44
2021/01/23 07:22:40;;;;;;;5.82;4.13;;;10.00;81.60;;;;;;5081184;28;20044;-44
2021/01/23 07:25:09;;;;;;;4.70;4.20;;;10.00;82.20;;;;;;5081388;28;20119;-42
2021/01/23 07:27:38;;;;;;;5.65;4.60;;;10.00;81.60;;;;;;5092509;28;20137;-43
2021/01/23 07:30:17;;;;;;;5.95;4.35;;;10.00;81.60;;;;;;5074141;28;20052;-41
2021/01/23 07:32:45;;;;;;;5.68;4.57;;;10.00;81.60;;;;;;5092509;28;20392;-43
2021/01/23 07:35:12;;;;;;;4.38;3.78;;;10.00;81.60;;;;;;5092409;28;20123;-47
2021/01/23 07:37:49;;;;;;;5.28;4.10;;;10.00;81.60;;;;;;5092241;28;20048;-42
2021/01/23 07:40:27;;;;;;;4.22;3.70;;;10.00;81.60;;;;;;5091573;28;20155;-47
2021/01/23 07:43:00;;;;;;;4.75;4.03;;;10.00;81.60;;;;;;5082455;28;20044;-44
2021/01/23 07:45:26;;;;;;;5.20;4.38;;;10.00;81.60;;;;;;5079201;28;20059;-44
2021/01/23 07:48:02;;;;;;;4.53;4.03;;;10.00;81.60;;;;;;5081479;28;20036;-44
2021/01/23 07:50:37;;;;;;;4.75;4.22;;;10.00;81.60;;;;;;5080125;28;20041;-44
2021/01/23 07:53:20;;;;;;;5.10;4.47;;;10.00;81.60;;;;;;5079601;28;20179;-41
2021/01/23 07:55:47;;;;;;;5.82;4.22;;;10.00;81.60;;;;;;5080622;28;20048;-43
2021/01/23 07:58:13;;;;;;;5.13;4.45;;;10.00;81.60;;;;;;5080955;28;20055;-44
2021/01/23 08:00:40;;;;;;;5.20;4.30;;;10.00;81.60;;;;;;5083017;28;20040;-43
2021/01/23 08:03:07;;;;;;;4.97;4.18;;;10.00;81.60;;;;;;5081145;28;20400;-47
2021/01/23 08:05:57;;;;;;;5.22;4.55;;;10.00;81.60;;;;;;5081565;28;20044;-42
2021/01/23 08:08:34;;;;;;;5.07;4.03;;;10.00;81.60;;;;;;5082669;28;20044;-43
2021/01/23 08:11:01;;;;;;;5.43;4.78;;;10.00;81.60;;;;;;5082587;28;20060;-43
2021/01/23 08:13:28;;;;;;;4.30;3.90;;;10.00;81.60;;;;;;5080639;28;20047;-47
2021/01/23 08:16:10;;;;;;;5.13;4.60;;;10.00;81.60;;;;;;5081276;28;20048;-45
2021/01/23 08:18:36;;;;;;;5.05;4.55;;;10.00;81.60;;;;;;5082316;28;20058;-47
2021/01/23 08:21:01;;;;;;;5.47;4.85;;;10.00;81.60;;;;;;5080750;28;20037;-43
2021/01/23 08:23:33;;;;;;;6.45;4.30;;;10.00;81.60;;;;;;5081912;28;20339;-43
2021/01/23 08:26:00;;;;;;;5.88;4.50;;;10.00;81.60;;;;;;5082405;28;20510;-43
2021/01/23 08:28:34;;;;;;;5.20;4.70;;;10.00;81.60;;;;;;5080518;28;20076;-42
2021/01/23 08:31:26;;;;;;;5.43;4.30;;;10.00;81.60;;;;;;5080376;28;20044;-41
2021/01/23 08:33:56;;;;;;;4.93;4.00;;;10.00;81.60;;;;;;5077950;28;20541;-42
2021/01/23 08:36:29;;;;;;;6.38;4.65;;;10.00;81.60;;;;;;5080568;28;20054;-45
2021/01/23 08:39:06;;;;;;;5.10;4.60;;;10.00;81.60;;;;;;5080893;28;20040;-42
2021/01/23 08:41:35;;;;;;;5.22;4.45;;;10.00;81.60;;;;;;5081508;28;20075;-41
2021/01/23 08:44:01;;;;;;;5.25;4.75;;;10.00;81.60;;;;;;5090299;28;20048;-42
2021/01/23 08:46:27;;;;;;;4.47;4.07;;;10.00;81.60;;;;;;5085126;28;20606;-39
2021/01/23 08:48:56;;;;;;;4.60;4.15;;;10.00;81.60;;;;;;5082752;28;20135;-42
2021/01/23 08:51:22;;;;;;;6.25;4.50;;;10.00;81.60;;;;;;5080575;28;20056;-47
2021/01/23 08:53:47;;;;;;;5.35;4.18;;;10.00;81.60;;;;;;5082045;28;20044;-43
2021/01/23 08:56:15;;;;;;;4.80;4.30;;;10.00;81.60;;;;;;5082157;28;20200;-43
2021/01/23 08:58:41;;;;;;;4.72;4.25;;;10.00;81.60;;;;;;5084569;28;20141;-46
2021/01/23 09:01:07;;;;;;;4.80;4.05;;;10.00;81.60;;;;;;5085822;28;20075;-46
2021/01/23 09:03:33;;;;;;;5.93;4.90;;;10.00;81.60;;;;;;5085319;28;20052;-43
2021/01/23 09:05:59;;;;;;;6.10;4.47;;;10.00;81.60;;;;;;5083899;28;20060;-45
2021/01/23 09:08:25;;;;;;;4.88;4.10;;;10.00;81.60;;;;;;5084145;28;20773;-44
2021/01/23 09:10:50;;;;;;;4.57;4.03;;;10.00;81.60;;;;;;5092246;28;20055;-46
2021/01/23 09:13:16;;;;;;;5.32;4.70;;;10.00;81.60;;;;;;5112020;28;20086;-47
2021/01/23 09:15:45;;;;;;;5.13;4.18;;;10.00;81.60;;;;;;5096543;28;20513;-47
2021/01/23 09:18:10;;;;;;;4.40;4.00;;;10.00;81.60;;;;;;5112358;28;20043;-46
2021/01/23 09:20:36;;;;;;;4.53;4.03;;;10.00;81.60;;;;;;5109033;28;20109;-45
2021/01/23 09:23:02;;;;;;;4.72;4.22;;;10.00;81.60;;;;;;5085225;28;20123;-46
2021/01/23 09:25:27;;;;;;;3.92;3.50;;;10.00;81.60;;;;;;5082791;28;20045;-46
2021/01/23 09:27:53;;;;;;;4.95;4.45;;;10.00;81.60;;;;;;5082790;28;20148;-44
2021/01/23 09:30:19;;;;;;;4.78;4.28;;;10.00;81.60;;;;;;5084235;28;20044;-43
2021/01/23 09:32:44;;;;;;;4.20;3.78;;;10.00;81.60;;;;;;5080371;28;20044;-46
2021/01/23 09:35:11;;;;;;;5.25;4.07;;;10.00;81.60;;;;;;5075501;28;20082;-43
2021/01/23 09:37:38;;;;;;;4.40;4.00;;;10.00;81.60;;;;;;5090816;28;20060;-47
2021/01/23 09:40:05;;;;;;;4.75;4.22;;;10.00;81.60;;;;;;5080123;28;20097;-45
2021/01/23 09:42:30;;;;;;;4.80;4.30;;;10.00;81.60;;;;;;5079776;28;20105;-42
2021/01/23 09:44:56;;;;;;;5.47;4.47;;;10.00;81.60;;;;;;5079095;28;20036;-41
2021/01/23 09:47:22;;;;;;;5.00;4.50;;;10.00;81.60;;;;;;5077188;28;20037;-48
2021/01/23 09:49:48;;;;;;;4.90;4.18;;;10.00;81.60;;;;;;5057396;28;20045;-44
2021/01/23 09:52:14;;;;;;;4.72;4.22;;;10.00;81.60;;;;;;5078289;28;20051;-40
2021/01/23 09:54:40;;;;;;;4.68;4.20;;;10.00;81.60;;;;;;5077039;28;20515;-42
2021/01/23 09:57:06;;;;;;;4.40;3.88;;;10.00;81.60;;;;;;5079563;28;20036;-39
2021/01/23 09:59:32;;;;;;;4.15;3.75;;;10.00;81.60;;;;;;5082902;28;20659;-46
2021/01/23 10:01:58;;;;;;;4.93;4.43;;;10.00;81.60;;;;;;5080437;28;20055;-47
2021/01/23 10:04:26;;;;;;;4.70;4.13;;;10.00;81.60;;;;;;5084670;28;20505;-42
2021/01/23 10:06:51;;;;;;;5.05;4.35;;;10.00;81.60;;;;;;5082802;28;20040;-40
2021/01/23 10:09:17;;;;;;;4.43;3.95;;;10.00;81.60;;;;;;5087190;28;20051;-43
2021/01/23 10:11:44;;;;;;;4.70;3.80;;;10.00;81.60;;;;;;5088811;28;20058;-40
2021/01/23 10:14:10;;;;;;;5.15;3.78;;;10.00;81.60;;;;;;5081836;28;20052;-40
2021/01/23 10:16:35;;;;;;;4.53;3.85;;;10.00;81.60;;;;;;5084759;28;20051;-40
2021/01/23 10:19:04;;;;;;;4.68;3.80;;;10.00;81.50;;;;;;5076774;28;20054;-43
2021/01/23 10:21:30;;;;;;;4.63;4.13;;;10.00;81.60;;;;;;5079131;28;20044;-43
2021/01/23 10:23:57;;;;;;;4.65;4.13;;;10.00;81.60;;;;;;5081010;28;20042;-46
2021/01/23 10:26:22;;;;;;;4.32;3.90;;;10.00;81.60;;;;;;5080574;28;20082;-41
2021/01/23 10:28:48;;;;;;;4.65;4.18;;;10.00;81.60;;;;;;5082860;28;20064;-45
2021/01/23 10:31:14;;;;;;;4.88;3.80;;;10.00;81.50;;;;;;5080453;28;20046;-47
2021/01/23 10:33:39;;;;;;;4.20;3.70;;;10.00;81.60;;;;;;5081554;28;20079;-39
2021/01/23 10:36:05;;;;;;;4.10;3.70;;;10.00;81.60;;;;;;5082376;28;20109;-44
2021/01/23 10:38:31;;;;;;;4.28;3.83;;;10.00;81.60;;;;;;5086645;28;20090;-46
2021/01/23 10:40:57;;;;;;;4.57;3.97;;;10.00;81.60;;;;;;5083310;28;20040;-48
2021/01/23 10:43:23;;;;;;;4.50;4.07;;;10.00;81.60;;;;;;5081839;28;20141;-45
2021/01/23 10:45:49;;;;;;;4.65;4.15;;;10.00;81.60;;;;;;5079198;28;20106;-42
2021/01/23 10:48:14;;;;;;;5.22;4.10;;;10.00;81.60;;;;;;5083449;28;20048;-47
2021/01/23 10:50:40;;;;;;;4.72;3.88;;;10.00;81.50;;;;;;5087506;28;20040;-46
2021/01/23 10:53:06;;;;;;;4.43;3.70;;;10.00;81.60;;;;;;5081766;28;20044;-43
2021/01/23 10:55:32;;;;;;;3.88;3.47;;;10.00;81.50;;;;;;5082272;28;20144;-48
2021/01/23 10:57:57;;;;;;;4.15;3.60;;;10.00;81.60;;;;;;5083470;28;20097;-43
2021/01/23 11:00:23;;;;;;;4.38;3.50;;;10.00;81.50;;;;;;5080786;28;20052;-40
2021/01/23 11:02:49;;;;;;;4.25;3.78;;;10.00;81.60;;;;;;5081116;28;20047;-45
2021/01/23 11:05:15;;;;;;;4.93;3.65;;;10.00;81.60;;;;;;5083015;28;20050;-47
2021/01/23 11:07:41;;;;;;;4.95;3.95;;;10.00;81.50;;;;;;5082270;28;20066;-47
2021/01/23 11:10:07;;;;;;;4.60;3.78;;;10.00;81.50;;;;;;5082346;28;20047;-42
2021/01/23 11:12:34;;;;;;;3.83;3.42;;;10.00;81.50;;;;;;5082877;28;20066;-48
2021/01/23 11:14:59;;;;;;;4.32;3.17;;;10.00;81.50;;;;;;5080723;28;20439;-47
2021/01/23 11:17:25;;;;;;;4.70;3.80;;;10.00;81.60;;;;;;5082285;28;20048;-45
2021/01/23 11:19:51;;;;;;;4.13;3.60;;;10.00;81.50;;;;;;5083168;28;20444;-47
2021/01/23 11:22:17;;;;;;;5.35;3.65;;;10.00;81.50;;;;;;5081423;28;20071;-42
2021/01/23 11:24:43;;;;;;;4.20;3.80;;;10.00;81.50;;;;;;5083882;28;20178;-45
2021/01/23 11:27:11;;;;;;;3.47;3.17;;;10.00;81.50;;;;;;5079860;28;20127;-48
2021/01/23 11:29:38;;;;;;;4.28;3.80;;;10.00;81.50;;;;;;5096933;28;20040;-44
2021/01/23 11:32:04;;;;;;;3.90;3.22;;;10.00;81.60;;;;;;5092151;28;20097;-41
2021/01/23 11:34:30;;;;;;;4.00;3.50;;;10.00;81.50;;;;;;5091106;28;20060;-50
2021/01/23 11:36:56;;;;;;;4.05;3.40;;;10.00;81.50;;;;;;5091352;28;20075;-44
2021/01/23 11:39:22;;;;;;;3.53;3.22;;;10.00;81.50;;;;;;5092040;28;20436;-47
2021/01/23 11:41:47;;;;;;;3.58;3.15;;;10.00;81.50;;;;;;5092330;28;20054;-41
2021/01/23 11:44:13;;;;;;;4.47;3.40;;;10.00;81.50;;;;;;5092124;28;20067;-45
2021/01/23 11:46:39;;;;;;;4.53;3.47;;;10.00;81.50;;;;;;5086036;28;20044;-41
2021/01/23 11:49:05;;;;;;;3.90;3.50;;;9.90;81.50;;;;;;5083606;28;20562;-43
2021/01/23 11:51:31;;;;;;;3.75;3.30;;;10.00;81.50;;;;;;5079637;28;20147;-40
2021/01/23 11:53:58;;;;;;;4.75;3.20;;;10.00;81.50;;;;;;5080609;28;20542;-39
2021/01/23 11:56:24;;;;;;;3.90;3.50;;;10.00;81.50;;;;;;5080752;28;20067;-41
2021/01/23 11:58:50;;;;;;;4.10;3.20;;;10.00;81.50;;;;;;5083116;28;20455;-40
2021/01/23 12:01:16;;;;;;;3.35;2.83;;;10.00;81.50;;;;;;5080025;28;20139;-39
2021/01/23 12:03:41;;;;;;;4.03;3.10;;;10.00;81.50;;;;;;5080426;28;20135;-46
2021/01/23 12:06:08;;;;;;;3.97;3.25;;;10.00;81.50;;;;;;5082867;28;20044;-41
2021/01/23 12:08:33;;;;;;;3.75;3.00;;;10.00;81.50;;;;;;5081826;28;20055;-42
2021/01/23 12:10:59;;;;;;;3.17;2.88;;;10.00;81.50;;;;;;5079813;28;20037;-41
2021/01/23 12:13:25;;;;;;;2.83;2.53;;;10.00;81.50;;;;;;5081235;28;20044;-42
2021/01/23 12:15:51;;;;;;;2.88;2.63;;;9.90;81.40;;;;;;5083149;28;20044;-39
2021/01/23 12:18:16;;;;;;;3.00;2.72;;;10.00;81.50;;;;;;5061598;28;20479;-43
2021/01/23 12:20:42;;;;;;;3.70;3.10;;;10.00;81.50;;;;;;5075102;28;20129;-41
2021/01/23 12:23:08;;;;;;;3.80;3.08;;;10.00;81.50;;;;;;5066413;28;20044;-40
2021/01/23 12:25:34;;;;;;;3.13;2.83;;;10.00;81.50;;;;;;5065824;28;20048;-39
2021/01/23 12:28:02;;;;;;;2.97;2.63;;;10.00;81.70;;;;;;5066431;28;20056;-42
2021/01/23 12:30:28;;;;;;;3.45;2.60;;;10.00;81.50;;;;;;5066148;28;20056;-39
2021/01/23 12:32:54;;;;;;;3.45;3.13;;;10.00;81.40;;;;;;5069624;28;20099;-43
2021/01/23 12:35:20;;;;;;;3.08;2.78;;;10.00;81.40;;;;;;5080598;28;20068;-40
2021/01/23 12:37:46;;;;;;;3.40;2.75;;;10.00;81.50;;;;;;5089851;28;20163;-45
2021/01/23 12:40:13;;;;;;;3.03;2.72;;;10.00;81.50;;;;;;5090109;28;20050;-44
2021/01/23 12:42:40;;;;;;;2.83;2.53;;;10.00;81.40;;;;;;5090661;28;20880;-39
2021/01/23 12:45:07;;;;;;;3.25;2.95;;;10.00;81.40;;;;;;5091071;28;20054;-44
2021/01/23 12:47:33;;;;;;;2.40;2.20;;;10.00;81.40;;;;;;5088052;28;20127;-42
2021/01/23 12:49:59;;;;;;;2.85;2.65;;;10.00;81.40;;;;;;5090500;28;20054;-44
2021/01/23 12:52:27;;;;;;;2.65;2.38;;;10.00;81.40;;;;;;5089972;28;20116;-47
2021/01/23 12:54:53;;;;;;;3.05;2.60;;;10.00;81.40;;;;;;5089353;28;20392;-44